sensor_id;sensor_type;location;lat;lon;timestamp;P1;P2;P0
61592;PMS5003;47485;51.378;-1.342;2023-02-08T00:00:37;67;55;
61592;PMS5003;47485;51.378;-1.342;2023-02-08T00:03:04;67;62;
61592;PMS5003;47485;51.378;-1.342;2023-02-08T00:05:30;61;58;
61592;PMS5003;47485;51.378;-1.342;2023-02-08T00:07:57;61;58;
61592;PMS5003;47485;51.378;-1.342;2023-02-08T00:10:25;68;58;
61592;PMS5003;47485;51.378;-1.342;2023-02-08T00:12:57;66;58;
61592;PMS5003;47485;51.378;-1.342;2023-02-08T00:15:24;73;64;
61592;PMS5003;47485;51.378;-1.342;2023-02-08T00:17:52;73;57;
61592;PMS5003;47485;51.378;-1.342;2023-02-08T00:20:18;63;59;
61592;PMS5003;47485;51.378;-1.342;2023-02-08T00:22:45;60;51;
61592;PMS5003;47485;51.378;-1.342;2023-02-08T00:25:12;69;54;
61592;PMS5003;47485;51.378;-1.342;2023-02-08T00:27:39;70;59;
61592;PMS5003;47485;51.378;-1.342;2023-02-08T00:30:06;60;55;
61592;PMS5003;47485;51.378;-1.342;2023-02-08T00:32:34;67;59;
61592;PMS5003;47485;51.378;-1.342;2023-02-08T00:35:01;59;56;
61592;PMS5003;47485;51.378;-1.342;2023-02-08T00:37:28;64;59;
61592;PMS5003;47485;51.378;-1.342;2023-02-08T00:39:55;73;66;
61592;PMS5003;47485;51.378;-1.342;2023-02-08T00:42:22;73;67;
61592;PMS5003;47485;51.378;-1.342;2023-02-08T00:44:50;78;64;
61592;PMS5003;47485;51.378;-1.342;2023-02-08T00:47:16;70;60;
61592;PMS5003;47485;51.378;-1.342;2023-02-08T00:49:43;74;60;
61592;PMS5003;47485;51.378;-1.342;2023-02-08T00:52:10;68;63;
61592;PMS5003;47485;51.378;-1.342;2023-02-08T00:54:37;64;58;
61592;PMS5003;47485;51.378;-1.342;2023-02-08T00:57:04;78;69;
61592;PMS5003;47485;51.378;-1.342;2023-02-08T00:59:31;64;58;
61592;PMS5003;47485;51.378;-1.342;2023-02-08T01:01:57;78;66;
61592;PMS5003;47485;51.378;-1.342;2023-02-08T01:04:25;67;59;
61592;PMS5003;47485;51.378;-1.342;2023-02-08T01:06:52;71;61;
61592;PMS5003;47485;51.378;-1.342;2023-02-08T01:09:19;62;58;
61592;PMS5003;47485;51.378;-1.342;2023-02-08T01:11:46;77;61;
61592;PMS5003;47485;51.378;-1.342;2023-02-08T01:14:12;81;69;
61592;PMS5003;47485;51.378;-1.342;2023-02-08T01:16:39;76;68;
61592;PMS5003;47485;51.378;-1.342;2023-02-08T01:19:06;79;68;
61592;PMS5003;47485;51.378;-1.342;2023-02-08T01:21:34;67;63;
61592;PMS5003;47485;51.378;-1.342;2023-02-08T01:24:01;71;62;
61592;PMS5003;47485;51.378;-1.342;2023-02-08T01:26:29;72;61;
61592;PMS5003;47485;51.378;-1.342;2023-02-08T01:28:57;75;64;
61592;PMS5003;47485;51.378;-1.342;2023-02-08T01:31:25;81;69;
61592;PMS5003;47485;51.378;-1.342;2023-02-08T01:33:53;77;62;
61592;PMS5003;47485;51.378;-1.342;2023-02-08T01:36:20;73;64;
61592;PMS5003;47485;51.378;-1.342;2023-02-08T01:38:48;67;62;
61592;PMS5003;47485;51.378;-1.342;2023-02-08T01:41:16;70;59;
61592;PMS5003;47485;51.378;-1.342;2023-02-08T01:44:02;67;59;
61592;PMS5003;47485;51.378;-1.342;2023-02-08T01:46:32;70;59;
61592;PMS5003;47485;51.378;-1.342;2023-02-08T01:49:01;65;59;
61592;PMS5003;47485;51.378;-1.342;2023-02-08T01:51:33;75;63;
61592;PMS5003;47485;51.378;-1.342;2023-02-08T01:54:04;78;67;
61592;PMS5003;47485;51.378;-1.342;2023-02-08T01:56:35;66;57;
61592;PMS5003;47485;51.378;-1.342;2023-02-08T01:59:04;67;60;
61592;PMS5003;47485;51.378;-1.342;2023-02-08T02:01:34;72;57;
61592;PMS5003;47485;51.378;-1.342;2023-02-08T02:04:04;64;56;
61592;PMS5003;47485;51.378;-1.342;2023-02-08T02:06:33;68;60;
61592;PMS5003;47485;51.378;-1.342;2023-02-08T02:09:07;70;59;
61592;PMS5003;47485;51.378;-1.342;2023-02-08T02:11:40;69;62;
61592;PMS5003;47485;51.378;-1.342;2023-02-08T02:14:09;61;55;
61592;PMS5003;47485;51.378;-1.342;2023-02-08T02:16:36;56;53;
61592;PMS5003;47485;51.378;-1.342;2023-02-08T02:19:02;77;63;
61592;PMS5003;47485;51.378;-1.342;2023-02-08T02:21:38;65;55;
61592;PMS5003;47485;51.378;-1.342;2023-02-08T02:24:22;62;60;
61592;PMS5003;47485;51.378;-1.342;2023-02-08T02:27:12;70;59;
61592;PMS5003;47485;51.378;-1.342;2023-02-08T02:30:01;63;55;
61592;PMS5003;47485;51.378;-1.342;2023-02-08T02:33:26;62;51;
61592;PMS5003;47485;51.378;-1.342;2023-02-08T02:36:07;77;61;
61592;PMS5003;47485;51.378;-1.342;2023-02-08T02:38:45;70;59;
61592;PMS5003;47485;51.378;-1.342;2023-02-08T02:41:22;69;63;
61592;PMS5003;47485;51.378;-1.342;2023-02-08T02:43:58;63;57;
61592;PMS5003;47485;51.378;-1.342;2023-02-08T02:46:27;58;52;
61592;PMS5003;47485;51.378;-1.342;2023-02-08T02:49:02;65;55;
61592;PMS5003;47485;51.378;-1.342;2023-02-08T02:51:36;63;55;
61592;PMS5003;47485;51.378;-1.342;2023-02-08T02:54:10;65;58;
61592;PMS5003;47485;51.378;-1.342;2023-02-08T02:56:43;63;59;
61592;PMS5003;47485;51.378;-1.342;2023-02-08T02:59:12;60;52;
61592;PMS5003;47485;51.378;-1.342;2023-02-08T03:01:41;75;63;
61592;PMS5003;47485;51.378;-1.342;2023-02-08T03:04:11;70;63;
61592;PMS5003;47485;51.378;-1.342;2023-02-08T03:06:41;69;56;
61592;PMS5003;47485;51.378;-1.342;2023-02-08T03:09:29;61;55;
61592;PMS5003;47485;51.378;-1.342;2023-02-08T03:12:10;73;62;
61592;PMS5003;47485;51.378;-1.342;2023-02-08T03:14:50;68;59;
61592;PMS5003;47485;51.378;-1.342;2023-02-08T03:17:28;63;52;
61592;PMS5003;47485;51.378;-1.342;2023-02-08T03:20:06;60;57;
61592;PMS5003;47485;51.378;-1.342;2023-02-08T03:22:39;59;53;
61592;PMS5003;47485;51.378;-1.342;2023-02-08T03:25:12;63;54;
61592;PMS5003;47485;51.378;-1.342;2023-02-08T03:27:47;63;55;
61592;PMS5003;47485;51.378;-1.342;2023-02-08T03:30:21;63;54;
61592;PMS5003;47485;51.378;-1.342;2023-02-08T03:32:56;60;54;
61592;PMS5003;47485;51.378;-1.342;2023-02-08T03:35:28;64;56;
61592;PMS5003;47485;51.378;-1.342;2023-02-08T03:38:00;67;62;
61592;PMS5003;47485;51.378;-1.342;2023-02-08T03:40:31;67;55;
61592;PMS5003;47485;51.378;-1.342;2023-02-08T03:43:05;56;51;
61592;PMS5003;47485;51.378;-1.342;2023-02-08T03:45:35;63;56;
61592;PMS5003;47485;51.378;-1.342;2023-02-08T03:48:06;75;59;
61592;PMS5003;47485;51.378;-1.342;2023-02-08T03:50:37;66;60;
61592;PMS5003;47485;51.378;-1.342;2023-02-08T03:53:06;60;56;
61592;PMS5003;47485;51.378;-1.342;2023-02-08T03:55:34;59;54;
61592;PMS5003;47485;51.378;-1.342;2023-02-08T03:58:05;64;57;
61592;PMS5003;47485;51.378;-1.342;2023-02-08T04:00:39;74;67;
61592;PMS5003;47485;51.378;-1.342;2023-02-08T04:03:11;62;54;
61592;PMS5003;47485;51.378;-1.342;2023-02-08T04:05:40;61;54;
61592;PMS5003;47485;51.378;-1.342;2023-02-08T04:08:08;74;55;
61592;PMS5003;47485;51.378;-1.342;2023-02-08T04:10:35;68;61;
61592;PMS5003;47485;51.378;-1.342;2023-02-08T04:13:02;53;46;
61592;PMS5003;47485;51.378;-1.342;2023-02-08T04:15:29;68;56;
61592;PMS5003;47485;51.378;-1.342;2023-02-08T04:17:56;70;61;
61592;PMS5003;47485;51.378;-1.342;2023-02-08T04:20:23;76;57;
61592;PMS5003;47485;51.378;-1.342;2023-02-08T04:22:50;63;54;
61592;PMS5003;47485;51.378;-1.342;2023-02-08T04:25:16;60;45;
61592;PMS5003;47485;51.378;-1.342;2023-02-08T04:27:43;61;49;
61592;PMS5003;47485;51.378;-1.342;2023-02-08T04:30:11;64;55;
61592;PMS5003;47485;51.378;-1.342;2023-02-08T04:32:39;62;58;
61592;PMS5003;47485;51.378;-1.342;2023-02-08T04:35:05;66;53;
61592;PMS5003;47485;51.378;-1.342;2023-02-08T04:37:32;64;51;
61592;PMS5003;47485;51.378;-1.342;2023-02-08T04:39:59;65;57;
61592;PMS5003;47485;51.378;-1.342;2023-02-08T04:42:26;66;53;
61592;PMS5003;47485;51.378;-1.342;2023-02-08T04:44:53;62;52;
61592;PMS5003;47485;51.378;-1.342;2023-02-08T04:47:19;66;57;
61592;PMS5003;47485;51.378;-1.342;2023-02-08T04:49:46;60;52;
61592;PMS5003;47485;51.378;-1.342;2023-02-08T04:52:12;64;54;
61592;PMS5003;47485;51.378;-1.342;2023-02-08T04:54:39;68;56;
61592;PMS5003;47485;51.378;-1.342;2023-02-08T04:57:06;73;63;
61592;PMS5003;47485;51.378;-1.342;2023-02-08T04:59:36;63;55;
61592;PMS5003;47485;51.378;-1.342;2023-02-08T05:02:02;70;56;
61592;PMS5003;47485;51.378;-1.342;2023-02-08T05:04:29;68;58;
61592;PMS5003;47485;51.378;-1.342;2023-02-08T05:06:55;66;56;
61592;PMS5003;47485;51.378;-1.342;2023-02-08T05:09:23;72;63;
61592;PMS5003;47485;51.378;-1.342;2023-02-08T05:11:50;67;58;
61592;PMS5003;47485;51.378;-1.342;2023-02-08T05:14:17;70;56;
61592;PMS5003;47485;51.378;-1.342;2023-02-08T05:16:43;67;59;
61592;PMS5003;47485;51.378;-1.342;2023-02-08T05:19:10;69;52;
61592;PMS5003;47485;51.378;-1.342;2023-02-08T05:21:37;62;51;
61592;PMS5003;47485;51.378;-1.342;2023-02-08T05:24:04;69;55;
61592;PMS5003;47485;51.378;-1.342;2023-02-08T05:26:31;75;60;
61592;PMS5003;47485;51.378;-1.342;2023-02-08T05:28:58;68;57;
61592;PMS5003;47485;51.378;-1.342;2023-02-08T05:31:26;71;59;
61592;PMS5003;47485;51.378;-1.342;2023-02-08T05:33:53;66;59;
61592;PMS5003;47485;51.378;-1.342;2023-02-08T05:36:20;73;59;
61592;PMS5003;47485;51.378;-1.342;2023-02-08T05:38:47;67;58;
61592;PMS5003;47485;51.378;-1.342;2023-02-08T05:41:15;67;56;
61592;PMS5003;47485;51.378;-1.342;2023-02-08T05:43:41;73;59;
61592;PMS5003;47485;51.378;-1.342;2023-02-08T05:46:09;81;66;
61592;PMS5003;47485;51.378;-1.342;2023-02-08T05:48:35;55;45;
61592;PMS5003;47485;51.378;-1.342;2023-02-08T05:51:02;69;58;
61592;PMS5003;47485;51.378;-1.342;2023-02-08T05:53:29;77;62;
61592;PMS5003;47485;51.378;-1.342;2023-02-08T05:55:56;65;59;
61592;PMS5003;47485;51.378;-1.342;2023-02-08T05:58:24;76;64;
61592;PMS5003;47485;51.378;-1.342;2023-02-08T06:00:52;71;57;
61592;PMS5003;47485;51.378;-1.342;2023-02-08T06:03:19;61;56;
61592;PMS5003;47485;51.378;-1.342;2023-02-08T06:05:46;70;59;
61592;PMS5003;47485;51.378;-1.342;2023-02-08T06:08:13;73;56;
61592;PMS5003;47485;51.378;-1.342;2023-02-08T06:10:40;70;59;
61592;PMS5003;47485;51.378;-1.342;2023-02-08T06:13:08;77;56;
61592;PMS5003;47485;51.378;-1.342;2023-02-08T06:15:35;64;52;
61592;PMS5003;47485;51.378;-1.342;2023-02-08T06:18:02;60;49;
61592;PMS5003;47485;51.378;-1.342;2023-02-08T06:20:28;65;48;
61592;PMS5003;47485;51.378;-1.342;2023-02-08T06:22:55;59;50;
61592;PMS5003;47485;51.378;-1.342;2023-02-08T06:25:22;55;50;
61592;PMS5003;47485;51.378;-1.342;2023-02-08T06:27:48;57;46;
61592;PMS5003;47485;51.378;-1.342;2023-02-08T06:30:15;65;55;
61592;PMS5003;47485;51.378;-1.342;2023-02-08T06:32:42;63;54;
61592;PMS5003;47485;51.378;-1.342;2023-02-08T06:35:09;62;51;
61592;PMS5003;47485;51.378;-1.342;2023-02-08T06:37:36;58;52;
61592;PMS5003;47485;51.378;-1.342;2023-02-08T06:40:02;51;46;
61592;PMS5003;47485;51.378;-1.342;2023-02-08T06:42:30;59;51;
61592;PMS5003;47485;51.378;-1.342;2023-02-08T06:44:56;64;53;
61592;PMS5003;47485;51.378;-1.342;2023-02-08T06:47:23;60;51;
61592;PMS5003;47485;51.378;-1.342;2023-02-08T06:49:51;71;58;
61592;PMS5003;47485;51.378;-1.342;2023-02-08T06:52:19;50;47;
61592;PMS5003;47485;51.378;-1.342;2023-02-08T06:54:46;55;47;
61592;PMS5003;47485;51.378;-1.342;2023-02-08T06:57:13;58;48;
61592;PMS5003;47485;51.378;-1.342;2023-02-08T06:59:40;56;51;
61592;PMS5003;47485;51.378;-1.342;2023-02-08T07:02:09;56;51;
61592;PMS5003;47485;51.378;-1.342;2023-02-08T07:04:38;72;57;
61592;PMS5003;47485;51.378;-1.342;2023-02-08T07:07:05;67;51;
61592;PMS5003;47485;51.378;-1.342;2023-02-08T07:09:31;48;47;
61592;PMS5003;47485;51.378;-1.342;2023-02-08T07:11:58;63;49;
61592;PMS5003;47485;51.378;-1.342;2023-02-08T07:14:25;66;50;
61592;PMS5003;47485;51.378;-1.342;2023-02-08T07:16:52;64;53;
61592;PMS5003;47485;51.378;-1.342;2023-02-08T07:19:19;63;55;
61592;PMS5003;47485;51.378;-1.342;2023-02-08T07:21:47;56;51;
61592;PMS5003;47485;51.378;-1.342;2023-02-08T07:24:15;53;46;
61592;PMS5003;47485;51.378;-1.342;2023-02-08T07:26:42;48;44;
61592;PMS5003;47485;51.378;-1.342;2023-02-08T07:29:10;67;53;
61592;PMS5003;47485;51.378;-1.342;2023-02-08T07:31:36;62;50;
61592;PMS5003;47485;51.378;-1.342;2023-02-08T07:34:03;53;43;
61592;PMS5003;47485;51.378;-1.342;2023-02-08T07:36:30;71;57;
61592;PMS5003;47485;51.378;-1.342;2023-02-08T07:38:57;72;61;
61592;PMS5003;47485;51.378;-1.342;2023-02-08T07:41:25;61;55;
61592;PMS5003;47485;51.378;-1.342;2023-02-08T07:43:52;62;55;
61592;PMS5003;47485;51.378;-1.342;2023-02-08T07:46:20;62;48;
61592;PMS5003;47485;51.378;-1.342;2023-02-08T07:48:47;67;60;
61592;PMS5003;47485;51.378;-1.342;2023-02-08T07:51:14;63;54;
61592;PMS5003;47485;51.378;-1.342;2023-02-08T07:53:41;63;57;
61592;PMS5003;47485;51.378;-1.342;2023-02-08T07:56:07;62;59;
61592;PMS5003;47485;51.378;-1.342;2023-02-08T07:58:34;59;51;
61592;PMS5003;47485;51.378;-1.342;2023-02-08T08:01:01;58;47;
61592;PMS5003;47485;51.378;-1.342;2023-02-08T08:03:28;68;56;
61592;PMS5003;47485;51.378;-1.342;2023-02-08T08:05:55;69;60;
61592;PMS5003;47485;51.378;-1.342;2023-02-08T08:08:22;77;57;
61592;PMS5003;47485;51.378;-1.342;2023-02-08T08:10:48;59;53;
61592;PMS5003;47485;51.378;-1.342;2023-02-08T08:13:15;63;50;
61592;PMS5003;47485;51.378;-1.342;2023-02-08T08:15:42;79;61;
61592;PMS5003;47485;51.378;-1.342;2023-02-08T08:18:09;60;54;
61592;PMS5003;47485;51.378;-1.342;2023-02-08T08:20:36;60;51;
61592;PMS5003;47485;51.378;-1.342;2023-02-08T08:23:03;66;55;
61592;PMS5003;47485;51.378;-1.342;2023-02-08T08:25:30;57;51;
61592;PMS5003;47485;51.378;-1.342;2023-02-08T08:27:57;59;50;
61592;PMS5003;47485;51.378;-1.342;2023-02-08T08:30:24;58;50;
61592;PMS5003;47485;51.378;-1.342;2023-02-08T08:32:52;75;58;
61592;PMS5003;47485;51.378;-1.342;2023-02-08T08:35:19;71;57;
61592;PMS5003;47485;51.378;-1.342;2023-02-08T08:37:46;62;53;
61592;PMS5003;47485;51.378;-1.342;2023-02-08T08:40:13;73;60;
61592;PMS5003;47485;51.378;-1.342;2023-02-08T08:42:40;62;54;
61592;PMS5003;47485;51.378;-1.342;2023-02-08T08:45:07;68;58;
61592;PMS5003;47485;51.378;-1.342;2023-02-08T08:47:34;72;59;
61592;PMS5003;47485;51.378;-1.342;2023-02-08T08:50:01;64;55;
61592;PMS5003;47485;51.378;-1.342;2023-02-08T08:52:29;71;55;
61592;PMS5003;47485;51.378;-1.342;2023-02-08T08:54:56;58;46;
61592;PMS5003;47485;51.378;-1.342;2023-02-08T08:57:22;72;57;
61592;PMS5003;47485;51.378;-1.342;2023-02-08T08:59:49;71;59;
61592;PMS5003;47485;51.378;-1.342;2023-02-08T09:02:16;69;60;
61592;PMS5003;47485;51.378;-1.342;2023-02-08T09:04:44;72;59;
61592;PMS5003;47485;51.378;-1.342;2023-02-08T09:07:10;64;50;
61592;PMS5003;47485;51.378;-1.342;2023-02-08T09:09:37;64;57;
61592;PMS5003;47485;51.378;-1.342;2023-02-08T09:12:05;63;60;
61592;PMS5003;47485;51.378;-1.342;2023-02-08T09:14:33;69;60;
61592;PMS5003;47485;51.378;-1.342;2023-02-08T09:17:00;77;64;
61592;PMS5003;47485;51.378;-1.342;2023-02-08T09:19:27;70;60;
61592;PMS5003;47485;51.378;-1.342;2023-02-08T09:21:54;85;62;
61592;PMS5003;47485;51.378;-1.342;2023-02-08T09:24:20;73;58;
61592;PMS5003;47485;51.378;-1.342;2023-02-08T09:26:48;67;61;
61592;PMS5003;47485;51.378;-1.342;2023-02-08T09:29:15;69;58;
61592;PMS5003;47485;51.378;-1.342;2023-02-08T09:31:42;75;61;
61592;PMS5003;47485;51.378;-1.342;2023-02-08T09:34:09;65;57;
61592;PMS5003;47485;51.378;-1.342;2023-02-08T09:36:36;74;62;
61592;PMS5003;47485;51.378;-1.342;2023-02-08T09:39:07;67;58;
61592;PMS5003;47485;51.378;-1.342;2023-02-08T09:41:42;66;59;
61592;PMS5003;47485;51.378;-1.342;2023-02-08T09:44:22;60;50;
61592;PMS5003;47485;51.378;-1.342;2023-02-08T09:46:56;64;53;
61592;PMS5003;47485;51.378;-1.342;2023-02-08T09:49:27;58;51;
61592;PMS5003;47485;51.378;-1.342;2023-02-08T09:52:00;65;55;
61592;PMS5003;47485;51.378;-1.342;2023-02-08T09:54:32;60;54;
61592;PMS5003;47485;51.378;-1.342;2023-02-08T09:57:04;55;47;
61592;PMS5003;47485;51.378;-1.342;2023-02-08T09:59:37;56;53;
61592;PMS5003;47485;51.378;-1.342;2023-02-08T10:02:10;62;47;
61592;PMS5003;47485;51.378;-1.342;2023-02-08T10:04:47;60;43;
61592;PMS5003;47485;51.378;-1.342;2023-02-08T10:07:23;56;45;
61592;PMS5003;47485;51.378;-1.342;2023-02-08T10:09:52;61;47;
61592;PMS5003;47485;51.378;-1.342;2023-02-08T10:12:21;55;52;
61592;PMS5003;47485;51.378;-1.342;2023-02-08T10:15:05;62;47;
61592;PMS5003;47485;51.378;-1.342;2023-02-08T10:17:46;59;49;
61592;PMS5003;47485;51.378;-1.342;2023-02-08T10:20:28;64;57;
61592;PMS5003;47485;51.378;-1.342;2023-02-08T10:23:05;55;48;
61592;PMS5003;47485;51.378;-1.342;2023-02-08T10:25:44;54;44;
61592;PMS5003;47485;51.378;-1.342;2023-02-08T10:28:25;55;45;
61592;PMS5003;47485;51.378;-1.342;2023-02-08T10:31:07;60;48;
61592;PMS5003;47485;51.378;-1.342;2023-02-08T10:33:41;56;53;
61592;PMS5003;47485;51.378;-1.342;2023-02-08T10:36:15;57;48;
61592;PMS5003;47485;51.378;-1.342;2023-02-08T10:38:46;58;48;
61592;PMS5003;47485;51.378;-1.342;2023-02-08T10:41:17;70;57;
61592;PMS5003;47485;51.378;-1.342;2023-02-08T10:43:50;62;51;
61592;PMS5003;47485;51.378;-1.342;2023-02-08T10:46:24;49;46;
61592;PMS5003;47485;51.378;-1.342;2023-02-08T10:49:01;54;51;
61592;PMS5003;47485;51.378;-1.342;2023-02-08T10:51:33;54;45;
61592;PMS5003;47485;51.378;-1.342;2023-02-08T10:54:00;52;47;
61592;PMS5003;47485;51.378;-1.342;2023-02-08T10:56:33;55;49;
61592;PMS5003;47485;51.378;-1.342;2023-02-08T10:59:06;56;49;
61592;PMS5003;47485;51.378;-1.342;2023-02-08T11:01:43;56;48;
61592;PMS5003;47485;51.378;-1.342;2023-02-08T11:04:12;59;49;
61592;PMS5003;47485;51.378;-1.342;2023-02-08T11:06:40;60;50;
61592;PMS5003;47485;51.378;-1.342;2023-02-08T11:09:18;56;48;
61592;PMS5003;47485;51.378;-1.342;2023-02-08T11:11:49;54;50;
61592;PMS5003;47485;51.378;-1.342;2023-02-08T11:14:18;71;63;
61592;PMS5003;47485;51.378;-1.342;2023-02-08T11:16:49;60;53;
61592;PMS5003;47485;51.378;-1.342;2023-02-08T11:19:20;62;50;
61592;PMS5003;47485;51.378;-1.342;2023-02-08T11:21:50;54;47;
61592;PMS5003;47485;51.378;-1.342;2023-02-08T11:24:21;59;53;
61592;PMS5003;47485;51.378;-1.342;2023-02-08T11:26:53;55;46;
61592;PMS5003;47485;51.378;-1.342;2023-02-08T11:29:22;56;51;
61592;PMS5003;47485;51.378;-1.342;2023-02-08T11:31:59;67;57;
61592;PMS5003;47485;51.378;-1.342;2023-02-08T11:34:28;63;55;
61592;PMS5003;47485;51.378;-1.342;2023-02-08T11:36:56;62;54;
61592;PMS5003;47485;51.378;-1.342;2023-02-08T11:39:26;60;52;
61592;PMS5003;47485;51.378;-1.342;2023-02-08T11:41:56;65;52;
61592;PMS5003;47485;51.378;-1.342;2023-02-08T11:44:26;59;54;
61592;PMS5003;47485;51.378;-1.342;2023-02-08T11:46:56;56;54;
61592;PMS5003;47485;51.378;-1.342;2023-02-08T11:49:27;92;80;
61592;PMS5003;47485;51.378;-1.342;2023-02-08T11:52:01;124;103;
61592;PMS5003;47485;51.378;-1.342;2023-02-08T11:54:31;111;99;
61592;PMS5003;47485;51.378;-1.342;2023-02-08T11:57:01;121;99;
61592;PMS5003;47485;51.378;-1.342;2023-02-08T11:59:36;73;65;
61592;PMS5003;47485;51.378;-1.342;2023-02-08T12:02:19;71;62;
61592;PMS5003;47485;51.378;-1.342;2023-02-08T12:05:03;66;55;
61592;PMS5003;47485;51.378;-1.342;2023-02-08T12:07:44;72;64;
61592;PMS5003;47485;51.378;-1.342;2023-02-08T12:10:25;68;64;
61592;PMS5003;47485;51.378;-1.342;2023-02-08T12:13:05;58;52;
61592;PMS5003;47485;51.378;-1.342;2023-02-08T12:15:44;65;55;
61592;PMS5003;47485;51.378;-1.342;2023-02-08T12:18:24;63;57;
61592;PMS5003;47485;51.378;-1.342;2023-02-08T12:21:04;75;60;
61592;PMS5003;47485;51.378;-1.342;2023-02-08T12:23:40;59;54;
61592;PMS5003;47485;51.378;-1.342;2023-02-08T12:26:15;68;58;
61592;PMS5003;47485;51.378;-1.342;2023-02-08T12:28:51;56;49;
61592;PMS5003;47485;51.378;-1.342;2023-02-08T12:31:31;63;59;
61592;PMS5003;47485;51.378;-1.342;2023-02-08T12:34:09;70;60;
61592;PMS5003;47485;51.378;-1.342;2023-02-08T12:36:48;53;49;
61592;PMS5003;47485;51.378;-1.342;2023-02-08T12:39:30;50;42;
61592;PMS5003;47485;51.378;-1.342;2023-02-08T12:42:10;47;40;
61592;PMS5003;47485;51.378;-1.342;2023-02-08T12:44:55;41;35;
61592;PMS5003;47485;51.378;-1.342;2023-02-08T12:47:38;41;33;
61592;PMS5003;47485;51.378;-1.342;2023-02-08T12:50:20;45;37;
61592;PMS5003;47485;51.378;-1.342;2023-02-08T12:52:57;40;39;
61592;PMS5003;47485;51.378;-1.342;2023-02-08T12:55:29;42;38;
61592;PMS5003;47485;51.378;-1.342;2023-02-08T12:58:03;47;43;
61592;PMS5003;47485;51.378;-1.342;2023-02-08T13:00:40;49;38;
61592;PMS5003;47485;51.378;-1.342;2023-02-08T13:03:11;37;31;
61592;PMS5003;47485;51.378;-1.342;2023-02-08T13:05:47;47;42;
61592;PMS5003;47485;51.378;-1.342;2023-02-08T13:08:16;46;36;
61592;PMS5003;47485;51.378;-1.342;2023-02-08T13:10:52;47;44;
61592;PMS5003;47485;51.378;-1.342;2023-02-08T13:13:25;43;35;
61592;PMS5003;47485;51.378;-1.342;2023-02-08T13:15:55;40;35;
61592;PMS5003;47485;51.378;-1.342;2023-02-08T13:18:27;46;37;
61592;PMS5003;47485;51.378;-1.342;2023-02-08T13:20:58;45;42;
61592;PMS5003;47485;51.378;-1.342;2023-02-08T13:23:29;43;38;
61592;PMS5003;47485;51.378;-1.342;2023-02-08T13:26:04;35;35;
61592;PMS5003;47485;51.378;-1.342;2023-02-08T13:28:33;45;42;
61592;PMS5003;47485;51.378;-1.342;2023-02-08T13:31:13;56;48;
61592;PMS5003;47485;51.378;-1.342;2023-02-08T13:33:45;48;44;
61592;PMS5003;47485;51.378;-1.342;2023-02-08T13:36:18;54;43;
61592;PMS5003;47485;51.378;-1.342;2023-02-08T13:38:48;42;39;
61592;PMS5003;47485;51.378;-1.342;2023-02-08T13:41:16;40;36;
61592;PMS5003;47485;51.378;-1.342;2023-02-08T13:43:46;44;38;
61592;PMS5003;47485;51.378;-1.342;2023-02-08T13:46:15;44;41;
61592;PMS5003;47485;51.378;-1.342;2023-02-08T13:48:46;40;40;
61592;PMS5003;47485;51.378;-1.342;2023-02-08T13:51:50;51;46;
61592;PMS5003;47485;51.378;-1.342;2023-02-08T13:54:18;55;50;
61592;PMS5003;47485;51.378;-1.342;2023-02-08T13:56:46;57;51;
61592;PMS5003;47485;51.378;-1.342;2023-02-08T13:59:25;55;53;
61592;PMS5003;47485;51.378;-1.342;2023-02-08T14:02:27;63;51;
61592;PMS5003;47485;51.378;-1.342;2023-02-08T14:04:58;54;48;
61592;PMS5003;47485;51.378;-1.342;2023-02-08T14:08:05;60;54;
61592;PMS5003;47485;51.378;-1.342;2023-02-08T14:10:42;64;54;
61592;PMS5003;47485;51.378;-1.342;2023-02-08T14:13:18;62;58;
61592;PMS5003;47485;51.378;-1.342;2023-02-08T14:16:21;60;53;
61592;PMS5003;47485;51.378;-1.342;2023-02-08T14:18:52;58;54;
61592;PMS5003;47485;51.378;-1.342;2023-02-08T14:21:25;57;55;
61592;PMS5003;47485;51.378;-1.342;2023-02-08T14:23:59;61;56;
61592;PMS5003;47485;51.378;-1.342;2023-02-08T14:26:27;70;62;
61592;PMS5003;47485;51.378;-1.342;2023-02-08T14:28:56;57;50;
61592;PMS5003;47485;51.378;-1.342;2023-02-08T14:31:34;53;48;
61592;PMS5003;47485;51.378;-1.342;2023-02-08T14:34:03;52;42;
61592;PMS5003;47485;51.378;-1.342;2023-02-08T14:36:30;55;49;
61592;PMS5003;47485;51.378;-1.342;2023-02-08T14:39:20;61;50;
61592;PMS5003;47485;51.378;-1.342;2023-02-08T14:41:50;49;47;
61592;PMS5003;47485;51.378;-1.342;2023-02-08T14:46:44;52;47;
61592;PMS5003;47485;51.378;-1.342;2023-02-08T14:49:11;39;38;
61592;PMS5003;47485;51.378;-1.342;2023-02-08T14:51:40;55;45;
61592;PMS5003;47485;51.378;-1.342;2023-02-08T14:54:14;50;41;
61592;PMS5003;47485;51.378;-1.342;2023-02-08T14:56:49;58;51;
61592;PMS5003;47485;51.378;-1.342;2023-02-08T14:59:21;57;47;
61592;PMS5003;47485;51.378;-1.342;2023-02-08T15:01:53;52;44;
61592;PMS5003;47485;51.378;-1.342;2023-02-08T15:04:23;47;42;
61592;PMS5003;47485;51.378;-1.342;2023-02-08T15:07:09;52;47;
61592;PMS5003;47485;51.378;-1.342;2023-02-08T15:09:45;52;47;
61592;PMS5003;47485;51.378;-1.342;2023-02-08T15:12:14;63;53;
61592;PMS5003;47485;51.378;-1.342;2023-02-08T15:14:47;55;50;
61592;PMS5003;47485;51.378;-1.342;2023-02-08T15:17:18;53;47;
61592;PMS5003;47485;51.378;-1.342;2023-02-08T15:19:50;50;43;
61592;PMS5003;47485;51.378;-1.342;2023-02-08T15:22:24;59;48;
61592;PMS5003;47485;51.378;-1.342;2023-02-08T15:24:57;47;43;
61592;PMS5003;47485;51.378;-1.342;2023-02-08T15:27:27;53;45;
61592;PMS5003;47485;51.378;-1.342;2023-02-08T15:29:55;53;46;
61592;PMS5003;47485;51.378;-1.342;2023-02-08T15:32:24;49;44;
61592;PMS5003;47485;51.378;-1.342;2023-02-08T15:34:54;57;49;
61592;PMS5003;47485;51.378;-1.342;2023-02-08T15:37:23;53;51;
61592;PMS5003;47485;51.378;-1.342;2023-02-08T15:39:52;53;51;
61592;PMS5003;47485;51.378;-1.342;2023-02-08T15:42:21;56;45;
61592;PMS5003;47485;51.378;-1.342;2023-02-08T15:44:50;46;39;
61592;PMS5003;47485;51.378;-1.342;2023-02-08T15:47:19;53;46;
61592;PMS5003;47485;51.378;-1.342;2023-02-08T15:49:50;46;40;
61592;PMS5003;47485;51.378;-1.342;2023-02-08T15:52:18;52;46;
61592;PMS5003;47485;51.378;-1.342;2023-02-08T15:54:47;57;49;
61592;PMS5003;47485;51.378;-1.342;2023-02-08T15:57:17;43;41;
61592;PMS5003;47485;51.378;-1.342;2023-02-08T15:59:59;57;47;
61592;PMS5003;47485;51.378;-1.342;2023-02-08T16:02:28;51;46;
61592;PMS5003;47485;51.378;-1.342;2023-02-08T16:04:56;55;48;
61592;PMS5003;47485;51.378;-1.342;2023-02-08T16:07:27;55;44;
61592;PMS5003;47485;51.378;-1.342;2023-02-08T16:09:57;50;48;
61592;PMS5003;47485;51.378;-1.342;2023-02-08T16:12:26;56;45;
61592;PMS5003;47485;51.378;-1.342;2023-02-08T16:14:54;48;43;
61592;PMS5003;47485;51.378;-1.342;2023-02-08T16:17:41;46;41;
61592;PMS5003;47485;51.378;-1.342;2023-02-08T16:20:26;51;48;
61592;PMS5003;47485;51.378;-1.342;2023-02-08T16:22:55;51;44;
61592;PMS5003;47485;51.378;-1.342;2023-02-08T16:25:31;46;41;
61592;PMS5003;47485;51.378;-1.342;2023-02-08T16:28:00;49;45;